sensor_id;sensor_type;location;lat;lon;timestamp;P1;durP1;ratioP1;P2;durP2;ratioP2
48205;SDS011;33995;48.202;16.260;2023-08-08T00:01:29;1.73;;;1.63;;
48205;SDS011;33995;48.202;16.260;2023-08-08T00:04:00;2.20;;;2.00;;
48205;SDS011;33995;48.202;16.260;2023-08-08T00:06:36;1.97;;;1.73;;
48205;SDS011;33995;48.202;16.260;2023-08-08T00:09:11;3.00;;;1.93;;
48205;SDS011;33995;48.202;16.260;2023-08-08T00:11:42;2.00;;;1.80;;
48205;SDS011;33995;48.202;16.260;2023-08-08T00:14:11;2.63;;;1.80;;
48205;SDS011;33995;48.202;16.260;2023-08-08T00:16:44;1.97;;;1.77;;
48205;SDS011;33995;48.202;16.260;2023-08-08T00:19:15;2.53;;;1.60;;
48205;SDS011;33995;48.202;16.260;2023-08-08T00:21:42;2.33;;;1.80;;
48205;SDS011;33995;48.202;16.260;2023-08-08T00:24:21;1.70;;;1.50;;
48205;SDS011;33995;48.202;16.260;2023-08-08T00:26:52;2.30;;;1.90;;
48205;SDS011;33995;48.202;16.260;2023-08-08T00:29:20;2.07;;;1.80;;
48205;SDS011;33995;48.202;16.260;2023-08-08T00:31:52;2.27;;;1.73;;
48205;SDS011;33995;48.202;16.260;2023-08-08T00:34:20;3.57;;;2.00;;
48205;SDS011;33995;48.202;16.260;2023-08-08T00:36:59;2.00;;;1.80;;
48205;SDS011;33995;48.202;16.260;2023-08-08T00:39:29;2.53;;;1.80;;
48205;SDS011;33995;48.202;16.260;2023-08-08T00:41:57;2.40;;;1.97;;
48205;SDS011;33995;48.202;16.260;2023-08-08T00:44:26;1.60;;;1.50;;
48205;SDS011;33995;48.202;16.260;2023-08-08T00:46:54;2.30;;;2.10;;
48205;SDS011;33995;48.202;16.260;2023-08-08T00:49:28;2.10;;;1.90;;
48205;SDS011;33995;48.202;16.260;2023-08-08T00:52:01;1.77;;;1.67;;
48205;SDS011;33995;48.202;16.260;2023-08-08T00:54:31;1.77;;;1.67;;
48205;SDS011;33995;48.202;16.260;2023-08-08T00:57:02;1.83;;;1.70;;
48205;SDS011;33995;48.202;16.260;2023-08-08T00:59:33;2.10;;;1.90;;
48205;SDS011;33995;48.202;16.260;2023-08-08T01:02:06;1.80;;;1.70;;
48205;SDS011;33995;48.202;16.260;2023-08-08T01:04:38;2.27;;;1.80;;
48205;SDS011;33995;48.202;16.260;2023-08-08T01:12:49;2.87;;;2.00;;
48205;SDS011;33995;48.202;16.260;2023-08-08T01:15:20;2.03;;;1.83;;
48205;SDS011;33995;48.202;16.260;2023-08-08T01:17:52;1.60;;;1.50;;
48205;SDS011;33995;48.202;16.260;2023-08-08T01:20:21;2.77;;;1.80;;
48205;SDS011;33995;48.202;16.260;2023-08-08T01:25:57;2.27;;;1.80;;
48205;SDS011;33995;48.202;16.260;2023-08-08T01:28:27;1.90;;;1.70;;
48205;SDS011;33995;48.202;16.260;2023-08-08T01:30:59;1.80;;;1.63;;
48205;SDS011;33995;48.202;16.260;2023-08-08T01:33:33;2.10;;;1.90;;
48205;SDS011;33995;48.202;16.260;2023-08-08T01:36:15;1.80;;;1.50;;
48205;SDS011;33995;48.202;16.260;2023-08-08T01:38:58;1.93;;;1.77;;
48205;SDS011;33995;48.202;16.260;2023-08-08T01:41:33;1.87;;;1.60;;
48205;SDS011;33995;48.202;16.260;2023-08-08T01:44:08;1.70;;;1.60;;
48205;SDS011;33995;48.202;16.260;2023-08-08T01:46:45;2.30;;;1.60;;
48205;SDS011;33995;48.202;16.260;2023-08-08T01:49:17;2.20;;;1.83;;
48205;SDS011;33995;48.202;16.260;2023-08-08T01:51:46;2.47;;;1.80;;
48205;SDS011;33995;48.202;16.260;2023-08-08T01:54:14;1.80;;;1.70;;
48205;SDS011;33995;48.202;16.260;2023-08-08T01:56:46;2.43;;;1.57;;
48205;SDS011;33995;48.202;16.260;2023-08-08T01:59:13;1.90;;;1.80;;
48205;SDS011;33995;48.202;16.260;2023-08-08T02:01:45;1.83;;;1.53;;
48205;SDS011;33995;48.202;16.260;2023-08-08T02:04:15;2.93;;;1.70;;
48205;SDS011;33995;48.202;16.260;2023-08-08T02:06:48;2.27;;;1.67;;
48205;SDS011;33995;48.202;16.260;2023-08-08T02:09:18;2.07;;;1.87;;
48205;SDS011;33995;48.202;16.260;2023-08-08T02:11:48;2.10;;;1.80;;
48205;SDS011;33995;48.202;16.260;2023-08-08T02:14:20;1.70;;;1.60;;
48205;SDS011;33995;48.202;16.260;2023-08-08T02:16:51;2.27;;;2.00;;
48205;SDS011;33995;48.202;16.260;2023-08-08T02:19:21;3.50;;;2.00;;
48205;SDS011;33995;48.202;16.260;2023-08-08T02:21:53;3.10;;;2.10;;
48205;SDS011;33995;48.202;16.260;2023-08-08T02:24:27;1.80;;;1.53;;
48205;SDS011;33995;48.202;16.260;2023-08-08T02:26:59;1.70;;;1.60;;
48205;SDS011;33995;48.202;16.260;2023-08-08T02:29:29;2.57;;;2.10;;
48205;SDS011;33995;48.202;16.260;2023-08-08T02:32:00;3.00;;;1.70;;
48205;SDS011;33995;48.202;16.260;2023-08-08T02:34:32;2.10;;;1.90;;
48205;SDS011;33995;48.202;16.260;2023-08-08T02:37:04;2.20;;;2.00;;
48205;SDS011;33995;48.202;16.260;2023-08-08T02:39:33;2.17;;;1.80;;
48205;SDS011;33995;48.202;16.260;2023-08-08T02:42:03;1.90;;;1.80;;
48205;SDS011;33995;48.202;16.260;2023-08-08T02:44:38;2.03;;;1.77;;
48205;SDS011;33995;48.202;16.260;2023-08-08T02:47:08;2.63;;;1.90;;
48205;SDS011;33995;48.202;16.260;2023-08-08T02:49:39;1.70;;;1.60;;
48205;SDS011;33995;48.202;16.260;2023-08-08T02:52:14;2.10;;;1.90;;
48205;SDS011;33995;48.202;16.260;2023-08-08T02:54:46;2.10;;;1.90;;
48205;SDS011;33995;48.202;16.260;2023-08-08T02:57:17;2.73;;;1.80;;
48205;SDS011;33995;48.202;16.260;2023-08-08T02:59:47;1.83;;;1.63;;
48205;SDS011;33995;48.202;16.260;2023-08-08T03:02:17;2.13;;;1.70;;
48205;SDS011;33995;48.202;16.260;2023-08-08T03:04:50;2.07;;;1.87;;
48205;SDS011;33995;48.202;16.260;2023-08-08T03:07:24;2.13;;;1.93;;
48205;SDS011;33995;48.202;16.260;2023-08-08T03:09:53;1.93;;;1.80;;
48205;SDS011;33995;48.202;16.260;2023-08-08T03:12:25;2.50;;;1.90;;
48205;SDS011;33995;48.202;16.260;2023-08-08T03:14:56;2.00;;;1.80;;
48205;SDS011;33995;48.202;16.260;2023-08-08T03:17:28;2.27;;;2.00;;
48205;SDS011;33995;48.202;16.260;2023-08-08T03:19:57;3.37;;;1.80;;
48205;SDS011;33995;48.202;16.260;2023-08-08T03:22:25;3.13;;;1.80;;
48205;SDS011;33995;48.202;16.260;2023-08-08T03:24:56;2.17;;;1.80;;
48205;SDS011;33995;48.202;16.260;2023-08-08T03:27:27;2.20;;;2.00;;
48205;SDS011;33995;48.202;16.260;2023-08-08T03:29:59;3.50;;;2.10;;
48205;SDS011;33995;48.202;16.260;2023-08-08T03:32:41;1.80;;;1.70;;
48205;SDS011;33995;48.202;16.260;2023-08-08T03:35:14;2.27;;;2.00;;
48205;SDS011;33995;48.202;16.260;2023-08-08T03:37:46;2.57;;;2.20;;
48205;SDS011;33995;48.202;16.260;2023-08-08T03:40:18;2.30;;;2.00;;
48205;SDS011;33995;48.202;16.260;2023-08-08T03:42:49;3.33;;;2.00;;
48205;SDS011;33995;48.202;16.260;2023-08-08T03:45:21;2.43;;;2.13;;
48205;SDS011;33995;48.202;16.260;2023-08-08T03:47:54;2.30;;;2.07;;
48205;SDS011;33995;48.202;16.260;2023-08-08T03:50:29;2.10;;;1.90;;
48205;SDS011;33995;48.202;16.260;2023-08-08T03:52:58;2.10;;;1.90;;
48205;SDS011;33995;48.202;16.260;2023-08-08T03:55:29;2.00;;;1.80;;
48205;SDS011;33995;48.202;16.260;2023-08-08T03:58:01;2.57;;;2.00;;
48205;SDS011;33995;48.202;16.260;2023-08-08T04:00:31;2.20;;;2.00;;
48205;SDS011;33995;48.202;16.260;2023-08-08T04:03:03;2.70;;;2.00;;
48205;SDS011;33995;48.202;16.260;2023-08-08T04:05:33;2.70;;;2.03;;
48205;SDS011;33995;48.202;16.260;2023-08-08T04:08:05;2.47;;;2.00;;
48205;SDS011;33995;48.202;16.260;2023-08-08T04:10:37;2.93;;;2.10;;
48205;SDS011;33995;48.202;16.260;2023-08-08T04:13:09;2.10;;;1.90;;
48205;SDS011;33995;48.202;16.260;2023-08-08T04:15:42;2.57;;;1.80;;
48205;SDS011;33995;48.202;16.260;2023-08-08T04:18:11;2.37;;;1.90;;
48205;SDS011;33995;48.202;16.260;2023-08-08T04:20:45;2.20;;;1.90;;
48205;SDS011;33995;48.202;16.260;2023-08-08T04:23:17;1.80;;;1.70;;
48205;SDS011;33995;48.202;16.260;2023-08-08T04:25:46;2.90;;;1.80;;
48205;SDS011;33995;48.202;16.260;2023-08-08T04:28:17;2.37;;;1.80;;
48205;SDS011;33995;48.202;16.260;2023-08-08T04:30:47;2.63;;;1.77;;
48205;SDS011;33995;48.202;16.260;2023-08-08T04:33:18;2.33;;;1.90;;
48205;SDS011;33995;48.202;16.260;2023-08-08T04:35:48;2.00;;;1.80;;
48205;SDS011;33995;48.202;16.260;2023-08-08T04:38:23;3.00;;;1.60;;
48205;SDS011;33995;48.202;16.260;2023-08-08T04:40:52;1.70;;;1.60;;
48205;SDS011;33995;48.202;16.260;2023-08-08T04:43:24;2.30;;;2.10;;
48205;SDS011;33995;48.202;16.260;2023-08-08T04:46:00;2.87;;;1.70;;
48205;SDS011;33995;48.202;16.260;2023-08-08T04:48:28;2.00;;;1.77;;
48205;SDS011;33995;48.202;16.260;2023-08-08T04:51:01;1.70;;;1.60;;
48205;SDS011;33995;48.202;16.260;2023-08-08T04:53:34;1.70;;;1.60;;
48205;SDS011;33995;48.202;16.260;2023-08-08T04:56:06;2.00;;;1.80;;
48205;SDS011;33995;48.202;16.260;2023-08-08T04:58:35;2.83;;;1.97;;
48205;SDS011;33995;48.202;16.260;2023-08-08T05:01:04;2.93;;;1.70;;
48205;SDS011;33995;48.202;16.260;2023-08-08T05:03:41;1.90;;;1.80;;
48205;SDS011;33995;48.202;16.260;2023-08-08T05:06:13;1.90;;;1.77;;
48205;SDS011;33995;48.202;16.260;2023-08-08T05:08:43;3.07;;;1.80;;
48205;SDS011;33995;48.202;16.260;2023-08-08T05:11:15;1.67;;;1.57;;
48205;SDS011;33995;48.202;16.260;2023-08-08T05:13:47;1.80;;;1.70;;
48205;SDS011;33995;48.202;16.260;2023-08-08T05:16:22;2.53;;;1.90;;
48205;SDS011;33995;48.202;16.260;2023-08-08T05:18:51;2.57;;;1.87;;
48205;SDS011;33995;48.202;16.260;2023-08-08T05:21:24;1.97;;;1.77;;
48205;SDS011;33995;48.202;16.260;2023-08-08T05:23:56;2.67;;;2.00;;
48205;SDS011;33995;48.202;16.260;2023-08-08T05:26:27;2.03;;;1.80;;
48205;SDS011;33995;48.202;16.260;2023-08-08T05:28:55;2.20;;;1.80;;
48205;SDS011;33995;48.202;16.260;2023-08-08T05:31:26;1.83;;;1.50;;
48205;SDS011;33995;48.202;16.260;2023-08-08T05:33:58;2.03;;;1.80;;
48205;SDS011;33995;48.202;16.260;2023-08-08T05:36:27;2.07;;;1.63;;
48205;SDS011;33995;48.202;16.260;2023-08-08T05:38:57;1.60;;;1.50;;
48205;SDS011;33995;48.202;16.260;2023-08-08T05:41:29;1.77;;;1.67;;
48205;SDS011;33995;48.202;16.260;2023-08-08T05:44:04;2.00;;;1.80;;
48205;SDS011;33995;48.202;16.260;2023-08-08T05:46:35;2.80;;;1.60;;
48205;SDS011;33995;48.202;16.260;2023-08-08T05:49:06;1.83;;;1.50;;
48205;SDS011;33995;48.202;16.260;2023-08-08T05:51:40;1.93;;;1.70;;
48205;SDS011;33995;48.202;16.260;2023-08-08T05:54:09;1.60;;;1.50;;
48205;SDS011;33995;48.202;16.260;2023-08-08T05:56:42;2.13;;;1.53;;
48205;SDS011;33995;48.202;16.260;2023-08-08T05:59:11;1.83;;;1.60;;
48205;SDS011;33995;48.202;16.260;2023-08-08T06:01:41;2.33;;;1.70;;
48205;SDS011;33995;48.202;16.260;2023-08-08T06:04:15;2.60;;;1.80;;
48205;SDS011;33995;48.202;16.260;2023-08-08T06:06:45;2.00;;;1.47;;
48205;SDS011;33995;48.202;16.260;2023-08-08T06:09:19;1.70;;;1.60;;
48205;SDS011;33995;48.202;16.260;2023-08-08T06:11:50;2.10;;;1.50;;
48205;SDS011;33995;48.202;16.260;2023-08-08T06:14:21;2.03;;;1.50;;
48205;SDS011;33995;48.202;16.260;2023-08-08T06:16:54;2.03;;;1.60;;
48205;SDS011;33995;48.202;16.260;2023-08-08T06:19:25;1.73;;;1.50;;
48205;SDS011;33995;48.202;16.260;2023-08-08T06:21:57;1.50;;;1.40;;
48205;SDS011;33995;48.202;16.260;2023-08-08T06:24:28;2.00;;;1.80;;
48205;SDS011;33995;48.202;16.260;2023-08-08T06:27:02;1.47;;;1.37;;
48205;SDS011;33995;48.202;16.260;2023-08-08T06:29:29;2.03;;;1.60;;
48205;SDS011;33995;48.202;16.260;2023-08-08T06:32:06;1.80;;;1.40;;
48205;SDS011;33995;48.202;16.260;2023-08-08T06:34:39;2.23;;;1.43;;
48205;SDS011;33995;48.202;16.260;2023-08-08T06:37:08;1.70;;;1.60;;
48205;SDS011;33995;48.202;16.260;2023-08-08T06:39:40;1.60;;;1.50;;
48205;SDS011;33995;48.202;16.260;2023-08-08T06:42:12;1.60;;;1.50;;
48205;SDS011;33995;48.202;16.260;2023-08-08T06:44:53;2.00;;;1.40;;
48205;SDS011;33995;48.202;16.260;2023-08-08T06:47:26;1.80;;;1.50;;
48205;SDS011;33995;48.202;16.260;2023-08-08T06:49:57;1.57;;;1.47;;
48205;SDS011;33995;48.202;16.260;2023-08-08T06:52:26;1.97;;;1.50;;
48205;SDS011;33995;48.202;16.260;2023-08-08T06:54:58;1.50;;;1.40;;
48205;SDS011;33995;48.202;16.260;2023-08-08T06:57:32;1.50;;;1.40;;
48205;SDS011;33995;48.202;16.260;2023-08-08T07:00:03;1.90;;;1.40;;
48205;SDS011;33995;48.202;16.260;2023-08-08T07:02:36;1.73;;;1.63;;
48205;SDS011;33995;48.202;16.260;2023-08-08T07:05:10;1.50;;;1.40;;
48205;SDS011;33995;48.202;16.260;2023-08-08T07:07:37;1.53;;;1.40;;
48205;SDS011;33995;48.202;16.260;2023-08-08T07:10:08;1.60;;;1.40;;
48205;SDS011;33995;48.202;16.260;2023-08-08T07:12:45;1.90;;;1.67;;
48205;SDS011;33995;48.202;16.260;2023-08-08T07:15:14;2.00;;;1.57;;
48205;SDS011;33995;48.202;16.260;2023-08-08T07:17:50;2.30;;;1.37;;
48205;SDS011;33995;48.202;16.260;2023-08-08T07:20:21;1.87;;;1.70;;
48205;SDS011;33995;48.202;16.260;2023-08-08T07:22:52;1.50;;;1.40;;
48205;SDS011;33995;48.202;16.260;2023-08-08T07:25:20;2.20;;;1.50;;
48205;SDS011;33995;48.202;16.260;2023-08-08T07:27:50;2.43;;;1.50;;
48205;SDS011;33995;48.202;16.260;2023-08-08T07:30:20;1.77;;;1.57;;
48205;SDS011;33995;48.202;16.260;2023-08-08T07:32:56;1.90;;;1.60;;
48205;SDS011;33995;48.202;16.260;2023-08-08T07:35:27;2.07;;;1.50;;
48205;SDS011;33995;48.202;16.260;2023-08-08T07:38:02;2.03;;;1.53;;
48205;SDS011;33995;48.202;16.260;2023-08-08T07:40:33;1.90;;;1.40;;
48205;SDS011;33995;48.202;16.260;2023-08-08T07:43:02;1.50;;;1.40;;
48205;SDS011;33995;48.202;16.260;2023-08-08T07:45:32;1.60;;;1.50;;
48205;SDS011;33995;48.202;16.260;2023-08-08T07:48:08;1.57;;;1.47;;
48205;SDS011;33995;48.202;16.260;2023-08-08T07:50:39;1.60;;;1.50;;
48205;SDS011;33995;48.202;16.260;2023-08-08T07:53:13;2.00;;;1.70;;
48205;SDS011;33995;48.202;16.260;2023-08-08T07:55:44;2.17;;;1.50;;
48205;SDS011;33995;48.202;16.260;2023-08-08T07:58:16;1.50;;;1.40;;
48205;SDS011;33995;48.202;16.260;2023-08-08T08:00:49;1.70;;;1.60;;
48205;SDS011;33995;48.202;16.260;2023-08-08T08:03:21;1.70;;;1.60;;
48205;SDS011;33995;48.202;16.260;2023-08-08T08:05:52;1.97;;;1.40;;
48205;SDS011;33995;48.202;16.260;2023-08-08T08:08:21;2.00;;;1.60;;
48205;SDS011;33995;48.202;16.260;2023-08-08T08:10:55;1.50;;;1.40;;
48205;SDS011;33995;48.202;16.260;2023-08-08T08:13:26;2.17;;;1.60;;
48205;SDS011;33995;48.202;16.260;2023-08-08T08:15:57;1.60;;;1.50;;
48205;SDS011;33995;48.202;16.260;2023-08-08T08:18:25;2.50;;;1.50;;
48205;SDS011;33995;48.202;16.260;2023-08-08T08:21:00;1.60;;;1.50;;
48205;SDS011;33995;48.202;16.260;2023-08-08T08:23:35;1.70;;;1.33;;
48205;SDS011;33995;48.202;16.260;2023-08-08T08:26:07;1.77;;;1.60;;
48205;SDS011;33995;48.202;16.260;2023-08-08T08:28:39;1.97;;;1.47;;
48205;SDS011;33995;48.202;16.260;2023-08-08T08:31:09;1.67;;;1.50;;
48205;SDS011;33995;48.202;16.260;2023-08-08T08:33:38;1.63;;;1.53;;
48205;SDS011;33995;48.202;16.260;2023-08-08T08:36:10;1.87;;;1.50;;
48205;SDS011;33995;48.202;16.260;2023-08-08T08:38:41;2.13;;;1.70;;
48205;SDS011;33995;48.202;16.260;2023-08-08T08:41:11;1.57;;;1.43;;
48205;SDS011;33995;48.202;16.260;2023-08-08T08:43:50;2.07;;;1.60;;
48205;SDS011;33995;48.202;16.260;2023-08-08T08:46:23;1.67;;;1.43;;
48205;SDS011;33995;48.202;16.260;2023-08-08T08:48:54;2.13;;;1.80;;
48205;SDS011;33995;48.202;16.260;2023-08-08T08:51:27;2.03;;;1.60;;
48205;SDS011;33995;48.202;16.260;2023-08-08T08:54:00;1.70;;;1.40;;
48205;SDS011;33995;48.202;16.260;2023-08-08T08:56:27;1.90;;;1.70;;
48205;SDS011;33995;48.202;16.260;2023-08-08T08:58:56;2.40;;;2.20;;
48205;SDS011;33995;48.202;16.260;2023-08-08T09:01:29;1.67;;;1.57;;
48205;SDS011;33995;48.202;16.260;2023-08-08T09:04:09;3.60;;;1.60;;
48205;SDS011;33995;48.202;16.260;2023-08-08T09:06:41;1.47;;;1.37;;
48205;SDS011;33995;48.202;16.260;2023-08-08T09:09:13;3.90;;;2.60;;
48205;SDS011;33995;48.202;16.260;2023-08-08T09:11:47;2.80;;;2.30;;
48205;SDS011;33995;48.202;16.260;2023-08-08T09:14:21;3.97;;;3.00;;
48205;SDS011;33995;48.202;16.260;2023-08-08T09:16:51;2.40;;;2.20;;
48205;SDS011;33995;48.202;16.260;2023-08-08T09:19:23;1.80;;;1.70;;
48205;SDS011;33995;48.202;16.260;2023-08-08T09:21:54;2.73;;;1.90;;
48205;SDS011;33995;48.202;16.260;2023-08-08T09:24:25;1.83;;;1.43;;
48205;SDS011;33995;48.202;16.260;2023-08-08T09:26:56;2.20;;;1.70;;
48205;SDS011;33995;48.202;16.260;2023-08-08T09:29:32;1.90;;;1.67;;
48205;SDS011;33995;48.202;16.260;2023-08-08T09:32:05;2.20;;;1.57;;
48205;SDS011;33995;48.202;16.260;2023-08-08T09:34:43;1.97;;;1.40;;
48205;SDS011;33995;48.202;16.260;2023-08-08T09:37:13;1.60;;;1.50;;
48205;SDS011;33995;48.202;16.260;2023-08-08T09:39:55;1.57;;;1.20;;
48205;SDS011;33995;48.202;16.260;2023-08-08T09:42:27;2.17;;;1.60;;
48205;SDS011;33995;48.202;16.260;2023-08-08T09:45:00;1.60;;;1.50;;
48205;SDS011;33995;48.202;16.260;2023-08-08T09:47:32;3.30;;;1.30;;
48205;SDS011;33995;48.202;16.260;2023-08-08T09:50:01;1.93;;;1.30;;
48205;SDS011;33995;48.202;16.260;2023-08-08T09:52:36;2.00;;;1.40;;
48205;SDS011;33995;48.202;16.260;2023-08-08T09:55:10;1.50;;;1.40;;
48205;SDS011;33995;48.202;16.260;2023-08-08T09:57:44;2.63;;;2.33;;
48205;SDS011;33995;48.202;16.260;2023-08-08T10:00:16;2.50;;;1.90;;
48205;SDS011;33995;48.202;16.260;2023-08-08T10:02:50;1.83;;;1.30;;
48205;SDS011;33995;48.202;16.260;2023-08-08T10:05:24;1.40;;;1.30;;
48205;SDS011;33995;48.202;16.260;2023-08-08T10:07:53;1.70;;;1.60;;
48205;SDS011;33995;48.202;16.260;2023-08-08T10:10:27;2.33;;;1.70;;
48205;SDS011;33995;48.202;16.260;2023-08-08T10:12:57;3.73;;;1.40;;
48205;SDS011;33995;48.202;16.260;2023-08-08T10:15:26;1.83;;;1.20;;
48205;SDS011;33995;48.202;16.260;2023-08-08T10:18:01;1.60;;;1.50;;
48205;SDS011;33995;48.202;16.260;2023-08-08T10:20:31;2.53;;;1.43;;
48205;SDS011;33995;48.202;16.260;2023-08-08T10:23:17;2.03;;;1.57;;
48205;SDS011;33995;48.202;16.260;2023-08-08T10:25:50;3.00;;;1.60;;
48205;SDS011;33995;48.202;16.260;2023-08-08T10:28:19;2.70;;;1.70;;
48205;SDS011;33995;48.202;16.260;2023-08-08T10:33:49;1.73;;;1.30;;
48205;SDS011;33995;48.202;16.260;2023-08-08T10:36:23;1.50;;;1.40;;
48205;SDS011;33995;48.202;16.260;2023-08-08T10:38:57;1.77;;;1.43;;
48205;SDS011;33995;48.202;16.260;2023-08-08T10:41:28;2.23;;;1.30;;
48205;SDS011;33995;48.202;16.260;2023-08-08T10:43:57;3.30;;;1.20;;
48205;SDS011;33995;48.202;16.260;2023-08-08T10:46:31;1.50;;;1.40;;
48205;SDS011;33995;48.202;16.260;2023-08-08T10:49:11;1.40;;;1.30;;
48205;SDS011;33995;48.202;16.260;2023-08-08T10:51:45;3.07;;;1.40;;
48205;SDS011;33995;48.202;16.260;2023-08-08T10:54:18;1.50;;;1.27;;
48205;SDS011;33995;48.202;16.260;2023-08-08T10:56:52;1.30;;;1.20;;
48205;SDS011;33995;48.202;16.260;2023-08-08T11:02:13;1.17;;;1.07;;
48205;SDS011;33995;48.202;16.260;2023-08-08T11:04:47;1.40;;;1.30;;
48205;SDS011;33995;48.202;16.260;2023-08-08T11:07:18;2.23;;;1.20;;
48205;SDS011;33995;48.202;16.260;2023-08-08T11:09:53;3.00;;;1.30;;
48205;SDS011;33995;48.202;16.260;2023-08-08T11:12:22;1.40;;;1.30;;
48205;SDS011;33995;48.202;16.260;2023-08-08T11:14:56;2.83;;;1.20;;
48205;SDS011;33995;48.202;16.260;2023-08-08T11:17:29;1.50;;;1.30;;
48205;SDS011;33995;48.202;16.260;2023-08-08T11:19:59;1.73;;;1.30;;
48205;SDS011;33995;48.202;16.260;2023-08-08T11:22:30;1.50;;;1.27;;
48205;SDS011;33995;48.202;16.260;2023-08-08T11:25:03;1.50;;;1.40;;
48205;SDS011;33995;48.202;16.260;2023-08-08T11:27:37;1.60;;;1.23;;
48205;SDS011;33995;48.202;16.260;2023-08-08T11:30:15;1.43;;;1.20;;
48205;SDS011;33995;48.202;16.260;2023-08-08T11:32:45;1.33;;;1.23;;
48205;SDS011;33995;48.202;16.260;2023-08-08T11:35:35;1.77;;;1.40;;
48205;SDS011;33995;48.202;16.260;2023-08-08T11:38:04;1.73;;;1.43;;
48205;SDS011;33995;48.202;16.260;2023-08-08T11:40:40;1.50;;;1.40;;
48205;SDS011;33995;48.202;16.260;2023-08-08T11:43:25;1.60;;;1.50;;
48205;SDS011;33995;48.202;16.260;2023-08-08T11:46:00;1.40;;;1.23;;
48205;SDS011;33995;48.202;16.260;2023-08-08T11:48:38;1.20;;;1.10;;
48205;SDS011;33995;48.202;16.260;2023-08-08T11:51:09;1.23;;;1.00;;
48205;SDS011;33995;48.202;16.260;2023-08-08T11:53:47;1.40;;;1.30;;
48205;SDS011;33995;48.202;16.260;2023-08-08T11:56:28;1.97;;;1.30;;
48205;SDS011;33995;48.202;16.260;2023-08-08T11:58:58;1.30;;;1.20;;
48205;SDS011;33995;48.202;16.260;2023-08-08T12:01:31;2.13;;;1.30;;
48205;SDS011;33995;48.202;16.260;2023-08-08T12:04:07;2.33;;;1.70;;
48205;SDS011;33995;48.202;16.260;2023-08-08T12:06:39;1.17;;;1.07;;
48205;SDS011;33995;48.202;16.260;2023-08-08T12:09:11;1.53;;;1.20;;
48205;SDS011;33995;48.202;16.260;2023-08-08T12:11:45;1.30;;;1.20;;
48205;SDS011;33995;48.202;16.260;2023-08-08T12:14:18;1.80;;;1.10;;
48205;SDS011;33995;48.202;16.260;2023-08-08T12:16:49;2.03;;;1.30;;
48205;SDS011;33995;48.202;16.260;2023-08-08T12:19:24;1.67;;;1.17;;
48205;SDS011;33995;48.202;16.260;2023-08-08T12:21:55;1.50;;;1.30;;
48205;SDS011;33995;48.202;16.260;2023-08-08T12:24:25;1.47;;;1.30;;
48205;SDS011;33995;48.202;16.260;2023-08-08T12:27:00;1.13;;;1.03;;
48205;SDS011;33995;48.202;16.260;2023-08-08T12:29:34;3.47;;;1.70;;
48205;SDS011;33995;48.202;16.260;2023-08-08T12:32:07;3.50;;;2.50;;
48205;SDS011;33995;48.202;16.260;2023-08-08T12:34:39;2.00;;;1.80;;
48205;SDS011;33995;48.202;16.260;2023-08-08T12:37:11;2.13;;;1.10;;
48205;SDS011;33995;48.202;16.260;2023-08-08T12:39:47;1.13;;;1.03;;
48205;SDS011;33995;48.202;16.260;2023-08-08T12:42:20;1.83;;;1.20;;
48205;SDS011;33995;48.202;16.260;2023-08-08T12:44:56;1.30;;;1.20;;
48205;SDS011;33995;48.202;16.260;2023-08-08T12:47:29;1.47;;;1.37;;
48205;SDS011;33995;48.202;16.260;2023-08-08T12:50:04;3.33;;;1.57;;
48205;SDS011;33995;48.202;16.260;2023-08-08T12:52:32;2.40;;;1.70;;
48205;SDS011;33995;48.202;16.260;2023-08-08T12:55:08;2.13;;;1.83;;
48205;SDS011;33995;48.202;16.260;2023-08-08T12:57:39;3.03;;;1.80;;
48205;SDS011;33995;48.202;16.260;2023-08-08T13:00:12;2.33;;;1.70;;
48205;SDS011;33995;48.202;16.260;2023-08-08T13:02:40;1.63;;;1.50;;
48205;SDS011;33995;48.202;16.260;2023-08-08T13:05:10;1.30;;;1.20;;
48205;SDS011;33995;48.202;16.260;2023-08-08T13:07:42;1.40;;;1.30;;
48205;SDS011;33995;48.202;16.260;2023-08-08T13:10:13;1.67;;;1.20;;
48205;SDS011;33995;48.202;16.260;2023-08-08T13:12:43;1.43;;;1.20;;
48205;SDS011;33995;48.202;16.260;2023-08-08T13:15:15;2.57;;;1.20;;
48205;SDS011;33995;48.202;16.260;2023-08-08T13:17:46;1.33;;;1.20;;
48205;SDS011;33995;48.202;16.260;2023-08-08T13:20:15;1.43;;;1.10;;
48205;SDS011;33995;48.202;16.260;2023-08-08T13:22:48;4.53;;;1.30;;
48205;SDS011;33995;48.202;16.260;2023-08-08T13:25:22;1.47;;;1.30;;
48205;SDS011;33995;48.202;16.260;2023-08-08T13:27:55;2.00;;;1.40;;
48205;SDS011;33995;48.202;16.260;2023-08-08T13:30:28;1.63;;;1.27;;
48205;SDS011;33995;48.202;16.260;2023-08-08T13:32:57;3.13;;;1.40;;
48205;SDS011;33995;48.202;16.260;2023-08-08T13:35:36;1.43;;;1.20;;
48205;SDS011;33995;48.202;16.260;2023-08-08T13:38:03;1.93;;;1.30;;
48205;SDS011;33995;48.202;16.260;2023-08-08T13:40:35;1.47;;;1.37;;
48205;SDS011;33995;48.202;16.260;2023-08-08T13:43:10;1.30;;;1.20;;
48205;SDS011;33995;48.202;16.260;2023-08-08T13:45:52;1.57;;;1.47;;
48205;SDS011;33995;48.202;16.260;2023-08-08T13:48:20;1.73;;;1.27;;
48205;SDS011;33995;48.202;16.260;2023-08-08T13:50:50;1.50;;;1.40;;
48205;SDS011;33995;48.202;16.260;2023-08-08T13:53:19;1.40;;;1.27;;
48205;SDS011;33995;48.202;16.260;2023-08-08T13:55:51;3.23;;;1.30;;
48205;SDS011;33995;48.202;16.260;2023-08-08T13:58:23;1.33;;;1.23;;
48205;SDS011;33995;48.202;16.260;2023-08-08T14:00:55;1.40;;;1.30;;
48205;SDS011;33995;48.202;16.260;2023-08-08T14:03:25;1.43;;;1.33;;
48205;SDS011;33995;48.202;16.260;2023-08-08T14:06:02;2.13;;;1.40;;
48205;SDS011;33995;48.202;16.260;2023-08-08T14:08:46;1.50;;;1.40;;
48205;SDS011;33995;48.202;16.260;2023-08-08T14:11:15;1.60;;;1.50;;
48205;SDS011;33995;48.202;16.260;2023-08-08T14:13:45;1.60;;;1.50;;
48205;SDS011;33995;48.202;16.260;2023-08-08T14:16:16;2.97;;;1.60;;
48205;SDS011;33995;48.202;16.260;2023-08-08T14:18:47;1.47;;;1.30;;
48205;SDS011;33995;48.202;16.260;2023-08-08T14:21:22;1.80;;;1.27;;
48205;SDS011;33995;48.202;16.260;2023-08-08T14:23:51;1.70;;;1.50;;
48205;SDS011;33995;48.202;16.260;2023-08-08T14:26:22;1.93;;;1.30;;
48205;SDS011;33995;48.202;16.260;2023-08-08T14:28:50;1.33;;;1.23;;
48205;SDS011;33995;48.202;16.260;2023-08-08T14:31:26;1.70;;;1.27;;
48205;SDS011;33995;48.202;16.260;2023-08-08T14:34:01;1.27;;;1.13;;
48205;SDS011;33995;48.202;16.260;2023-08-08T14:36:32;1.20;;;1.10;;
48205;SDS011;33995;48.202;16.260;2023-08-08T14:39:03;1.40;;;1.30;;
48205;SDS011;33995;48.202;16.260;2023-08-08T14:41:31;1.40;;;1.30;;
48205;SDS011;33995;48.202;16.260;2023-08-08T14:44:09;1.47;;;1.37;;
48205;SDS011;33995;48.202;16.260;2023-08-08T14:46:41;1.67;;;1.57;;
48205;SDS011;33995;48.202;16.260;2023-08-08T14:49:12;1.40;;;1.30;;
48205;SDS011;33995;48.202;16.260;2023-08-08T14:51:42;1.40;;;1.30;;
48205;SDS011;33995;48.202;16.260;2023-08-08T14:54:12;1.47;;;1.37;;
48205;SDS011;33995;48.202;16.260;2023-08-08T14:56:43;1.63;;;1.43;;
48205;SDS011;33995;48.202;16.260;2023-08-08T14:59:14;1.70;;;1.20;;
48205;SDS011;33995;48.202;16.260;2023-08-08T15:01:41;2.13;;;1.33;;
48205;SDS011;33995;48.202;16.260;2023-08-08T15:04:15;1.90;;;1.40;;
48205;SDS011;33995;48.202;16.260;2023-08-08T15:06:48;2.10;;;1.33;;
48205;SDS011;33995;48.202;16.260;2023-08-08T15:09:17;2.20;;;1.90;;
48205;SDS011;33995;48.202;16.260;2023-08-08T15:11:52;1.70;;;1.50;;
48205;SDS011;33995;48.202;16.260;2023-08-08T15:14:20;1.80;;;1.60;;
48205;SDS011;33995;48.202;16.260;2023-08-08T15:16:52;1.50;;;1.30;;